sensor_id;sensor_type;location;lat;lon;timestamp;pressure;altitude;pressure_sealevel;temperature;humidity
10732;BME280;5417;42.686;23.244;2022-12-29T00:01:38;95194.09;;;7.77;71.02
10732;BME280;5417;42.686;23.244;2022-12-29T00:04:05;95195.88;;;7.77;70.76
10732;BME280;5417;42.686;23.244;2022-12-29T00:06:32;95196.97;;;7.73;70.67
10732;BME280;5417;42.686;23.244;2022-12-29T00:08:59;95196.59;;;7.79;71.05
10732;BME280;5417;42.686;23.244;2022-12-29T00:11:27;95187.63;;;7.70;71.42
10732;BME280;5417;42.686;23.244;2022-12-29T00:13:54;95200.03;;;7.79;71.12
10732;BME280;5417;42.686;23.244;2022-12-29T00:16:41;95201.72;;;7.80;71.19
10732;BME280;5417;42.686;23.244;2022-12-29T00:19:08;95201.78;;;7.79;70.61
10732;BME280;5417;42.686;23.244;2022-12-29T00:21:55;95204.56;;;7.76;71.10
10732;BME280;5417;42.686;23.244;2022-12-29T00:24:39;95213.81;;;7.80;70.73
10732;BME280;5417;42.686;23.244;2022-12-29T00:27:26;95218.88;;;7.83;70.29
10732;BME280;5417;42.686;23.244;2022-12-29T00:30:12;95220.84;;;7.94;70.30
10732;BME280;5417;42.686;23.244;2022-12-29T00:32:57;95210.94;;;8.00;70.23
10732;BME280;5417;42.686;23.244;2022-12-29T00:35:45;95213.72;;;8.11;69.41
10732;BME280;5417;42.686;23.244;2022-12-29T00:38:13;95204.44;;;7.93;69.43
10732;BME280;5417;42.686;23.244;2022-12-29T00:41:03;95221.38;;;7.84;69.53
10732;BME280;5417;42.686;23.244;2022-12-29T00:43:49;95208.59;;;7.66;70.79
10732;BME280;5417;42.686;23.244;2022-12-29T00:46:36;95226.91;;;7.63;70.69
10732;BME280;5417;42.686;23.244;2022-12-29T00:49:04;95233.31;;;7.41;72.41
10732;BME280;5417;42.686;23.244;2022-12-29T00:51:49;95219.94;;;7.33;72.47
10732;BME280;5417;42.686;23.244;2022-12-29T00:54:16;95225.63;;;7.24;72.33
10732;BME280;5417;42.686;23.244;2022-12-29T00:56:45;95226.38;;;7.26;73.88
10732;BME280;5417;42.686;23.244;2022-12-29T00:59:13;95230.72;;;7.41;72.71
10732;BME280;5417;42.686;23.244;2022-12-29T01:01:41;95228.56;;;7.34;72.71
10732;BME280;5417;42.686;23.244;2022-12-29T01:04:08;95229.47;;;7.33;73.16
10732;BME280;5417;42.686;23.244;2022-12-29T01:06:35;95223.94;;;7.23;73.44
10732;BME280;5417;42.686;23.244;2022-12-29T01:09:03;95218.09;;;7.19;72.99
10732;BME280;5417;42.686;23.244;2022-12-29T01:11:48;95203.09;;;7.10;74.12
10732;BME280;5417;42.686;23.244;2022-12-29T01:14:17;95225.69;;;7.22;73.61
10732;BME280;5417;42.686;23.244;2022-12-29T01:16:44;95219.50;;;7.25;73.61
10732;BME280;5417;42.686;23.244;2022-12-29T01:19:15;95214.16;;;7.28;73.26
10732;BME280;5417;42.686;23.244;2022-12-29T01:21:42;95206.84;;;7.36;72.97
10732;BME280;5417;42.686;23.244;2022-12-29T01:24:09;95217.78;;;7.41;72.71
10732;BME280;5417;42.686;23.244;2022-12-29T01:26:36;95211.00;;;7.39;73.06
10732;BME280;5417;42.686;23.244;2022-12-29T01:29:03;95205.66;;;7.42;72.96
10732;BME280;5417;42.686;23.244;2022-12-29T01:31:31;95204.81;;;7.41;72.34
10732;BME280;5417;42.686;23.244;2022-12-29T01:33:58;95197.88;;;7.42;72.80
10732;BME280;5417;42.686;23.244;2022-12-29T01:36:25;95194.03;;;7.49;72.64
10732;BME280;5417;42.686;23.244;2022-12-29T01:38:52;95196.84;;;7.60;72.26
10732;BME280;5417;42.686;23.244;2022-12-29T01:41:19;95191.47;;;7.63;72.67
10732;BME280;5417;42.686;23.244;2022-12-29T01:43:47;95185.06;;;7.54;72.17
10732;BME280;5417;42.686;23.244;2022-12-29T01:46:20;95189.41;;;7.54;71.90
10732;BME280;5417;42.686;23.244;2022-12-29T01:48:54;95181.06;;;7.49;72.49
10732;BME280;5417;42.686;23.244;2022-12-29T01:51:23;95179.41;;;7.48;71.44
10732;BME280;5417;42.686;23.244;2022-12-29T01:53:52;95180.41;;;7.45;72.16
10732;BME280;5417;42.686;23.244;2022-12-29T01:56:20;95187.66;;;7.54;72.31
10732;BME280;5417;42.686;23.244;2022-12-29T01:58:55;95189.50;;;7.52;72.14
10732;BME280;5417;42.686;23.244;2022-12-29T02:01:25;95185.50;;;7.47;71.99
10732;BME280;5417;42.686;23.244;2022-12-29T02:03:54;95164.66;;;7.34;72.20
10732;BME280;5417;42.686;23.244;2022-12-29T02:06:22;95169.31;;;7.43;72.57
10732;BME280;5417;42.686;23.244;2022-12-29T02:08:53;95169.88;;;7.48;72.55
10732;BME280;5417;42.686;23.244;2022-12-29T02:11:23;95169.56;;;7.69;71.88
10732;BME280;5417;42.686;23.244;2022-12-29T02:13:51;95165.97;;;7.71;71.65
10732;BME280;5417;42.686;23.244;2022-12-29T02:18:59;95164.19;;;7.72;71.66
10732;BME280;5417;42.686;23.244;2022-12-29T02:24:42;95169.19;;;7.60;72.33
10732;BME280;5417;42.686;23.244;2022-12-29T02:27:31;95175.53;;;7.55;72.18
10732;BME280;5417;42.686;23.244;2022-12-29T02:30:06;95168.47;;;7.73;71.24
10732;BME280;5417;42.686;23.244;2022-12-29T02:32:42;95157.25;;;7.72;71.37
10732;BME280;5417;42.686;23.244;2022-12-29T02:35:23;95154.09;;;7.67;71.54
10732;BME280;5417;42.686;23.244;2022-12-29T02:37:59;95173.38;;;7.47;72.14
10732;BME280;5417;42.686;23.244;2022-12-29T02:40:37;95181.34;;;7.44;72.36
10732;BME280;5417;42.686;23.244;2022-12-29T02:43:13;95167.91;;;7.38;72.70
10732;BME280;5417;42.686;23.244;2022-12-29T02:45:52;95174.50;;;7.43;72.54
10732;BME280;5417;42.686;23.244;2022-12-29T02:48:25;95181.81;;;7.51;72.83
10732;BME280;5417;42.686;23.244;2022-12-29T02:50:58;95163.38;;;7.41;72.84
10732;BME280;5417;42.686;23.244;2022-12-29T02:53:30;95170.16;;;7.44;72.79
10732;BME280;5417;42.686;23.244;2022-12-29T02:56:17;95170.59;;;7.36;73.60
10732;BME280;5417;42.686;23.244;2022-12-29T02:58:44;95169.56;;;7.39;73.14
10732;BME280;5417;42.686;23.244;2022-12-29T03:01:24;95173.25;;;7.35;73.97
10732;BME280;5417;42.686;23.244;2022-12-29T03:04:10;95160.50;;;7.32;74.02
10732;BME280;5417;42.686;23.244;2022-12-29T03:06:51;95155.69;;;7.40;72.69
10732;BME280;5417;42.686;23.244;2022-12-29T03:09:28;95158.19;;;7.41;73.10
10732;BME280;5417;42.686;23.244;2022-12-29T03:11:59;95141.75;;;7.26;73.52
10732;BME280;5417;42.686;23.244;2022-12-29T03:14:43;95134.06;;;7.25;73.93
10732;BME280;5417;42.686;23.244;2022-12-29T03:17:42;95146.63;;;7.33;73.62
10732;BME280;5417;42.686;23.244;2022-12-29T03:20:17;95145.88;;;7.31;74.07
10732;BME280;5417;42.686;23.244;2022-12-29T03:22:47;95143.44;;;7.27;73.98
10732;BME280;5417;42.686;23.244;2022-12-29T03:25:21;95146.84;;;7.28;73.11
10732;BME280;5417;42.686;23.244;2022-12-29T03:27:53;95147.19;;;7.22;74.13
10732;BME280;5417;42.686;23.244;2022-12-29T03:30:22;95149.03;;;7.20;73.02
10732;BME280;5417;42.686;23.244;2022-12-29T03:32:52;95156.72;;;7.21;73.18
10732;BME280;5417;42.686;23.244;2022-12-29T03:35:25;95142.63;;;7.11;72.56
10732;BME280;5417;42.686;23.244;2022-12-29T03:37:58;95145.38;;;7.08;72.01
10732;BME280;5417;42.686;23.244;2022-12-29T03:40:26;95156.91;;;7.03;71.35
10732;BME280;5417;42.686;23.244;2022-12-29T03:42:54;95144.50;;;6.93;71.60
10732;BME280;5417;42.686;23.244;2022-12-29T03:45:23;95151.50;;;6.91;71.79
10732;BME280;5417;42.686;23.244;2022-12-29T03:47:51;95162.78;;;6.90;71.16
10732;BME280;5417;42.686;23.244;2022-12-29T03:50:19;95165.69;;;6.84;71.58
10732;BME280;5417;42.686;23.244;2022-12-29T03:52:47;95147.66;;;6.67;71.11
10732;BME280;5417;42.686;23.244;2022-12-29T03:55:14;95171.34;;;6.75;72.37
10732;BME280;5417;42.686;23.244;2022-12-29T03:57:41;95160.41;;;6.70;71.34
10732;BME280;5417;42.686;23.244;2022-12-29T04:00:09;95173.44;;;6.69;71.82
10732;BME280;5417;42.686;23.244;2022-12-29T04:02:36;95172.19;;;6.60;72.13
10732;BME280;5417;42.686;23.244;2022-12-29T04:05:04;95166.09;;;6.61;72.19
10732;BME280;5417;42.686;23.244;2022-12-29T04:07:31;95175.75;;;6.57;72.44
10732;BME280;5417;42.686;23.244;2022-12-29T04:09:59;95179.25;;;6.56;71.79
10732;BME280;5417;42.686;23.244;2022-12-29T04:12:26;95173.25;;;6.56;72.13
10732;BME280;5417;42.686;23.244;2022-12-29T04:14:53;95159.06;;;6.47;71.80
10732;BME280;5417;42.686;23.244;2022-12-29T04:17:20;95170.84;;;6.53;72.12
10732;BME280;5417;42.686;23.244;2022-12-29T04:19:48;95152.56;;;6.40;72.14
10732;BME280;5417;42.686;23.244;2022-12-29T04:22:15;95174.50;;;6.49;71.91
10732;BME280;5417;42.686;23.244;2022-12-29T04:24:42;95171.91;;;6.49;73.13
10732;BME280;5417;42.686;23.244;2022-12-29T04:27:10;95171.91;;;6.49;72.75
10732;BME280;5417;42.686;23.244;2022-12-29T04:29:37;95169.31;;;6.49;72.36
10732;BME280;5417;42.686;23.244;2022-12-29T04:32:04;95175.59;;;6.45;72.38
10732;BME280;5417;42.686;23.244;2022-12-29T04:34:31;95169.22;;;6.35;72.06
10732;BME280;5417;42.686;23.244;2022-12-29T04:36:58;95182.91;;;6.37;71.93
10732;BME280;5417;42.686;23.244;2022-12-29T04:39:25;95178.06;;;6.30;72.83
10732;BME280;5417;42.686;23.244;2022-12-29T04:41:52;95188.31;;;6.32;72.85
10732;BME280;5417;42.686;23.244;2022-12-29T04:44:20;95177.59;;;6.22;73.46
10732;BME280;5417;42.686;23.244;2022-12-29T04:46:47;95181.81;;;6.25;72.85
10732;BME280;5417;42.686;23.244;2022-12-29T04:49:14;95199.75;;;6.28;73.07
10732;BME280;5417;42.686;23.244;2022-12-29T04:51:41;95204.00;;;6.29;72.50
10732;BME280;5417;42.686;23.244;2022-12-29T04:54:07;95208.31;;;6.28;72.93
10732;BME280;5417;42.686;23.244;2022-12-29T04:56:34;95210.00;;;6.29;72.51
10732;BME280;5417;42.686;23.244;2022-12-29T04:59:01;95210.84;;;6.30;72.84
10732;BME280;5417;42.686;23.244;2022-12-29T05:01:30;95214.09;;;6.33;72.77
10732;BME280;5417;42.686;23.244;2022-12-29T05:03:56;95204.50;;;6.36;73.19
10732;BME280;5417;42.686;23.244;2022-12-29T05:06:23;95214.59;;;6.40;72.94
10732;BME280;5417;42.686;23.244;2022-12-29T05:08:50;95213.69;;;6.41;73.48
10732;BME280;5417;42.686;23.244;2022-12-29T05:11:17;95211.88;;;6.43;73.65
10732;BME280;5417;42.686;23.244;2022-12-29T05:13:45;95211.63;;;6.48;73.81
10732;BME280;5417;42.686;23.244;2022-12-29T05:16:12;95213.47;;;6.61;72.94
10732;BME280;5417;42.686;23.244;2022-12-29T05:18:40;95204.22;;;6.73;72.83
10732;BME280;5417;42.686;23.244;2022-12-29T05:21:07;95205.22;;;6.71;72.20
10732;BME280;5417;42.686;23.244;2022-12-29T05:23:34;95217.91;;;6.59;72.92
10732;BME280;5417;42.686;23.244;2022-12-29T05:26:01;95198.34;;;6.38;74.24
10732;BME280;5417;42.686;23.244;2022-12-29T05:28:28;95212.22;;;6.53;73.90
10732;BME280;5417;42.686;23.244;2022-12-29T05:30:55;95210.69;;;6.49;74.32
10732;BME280;5417;42.686;23.244;2022-12-29T05:33:21;95192.94;;;6.43;74.22
10732;BME280;5417;42.686;23.244;2022-12-29T05:35:50;95212.81;;;6.74;74.95
10732;BME280;5417;42.686;23.244;2022-12-29T05:38:17;95210.69;;;6.82;73.80
10732;BME280;5417;42.686;23.244;2022-12-29T05:40:45;95213.28;;;6.82;73.56
10732;BME280;5417;42.686;23.244;2022-12-29T05:43:12;95208.66;;;6.71;74.10
10732;BME280;5417;42.686;23.244;2022-12-29T05:45:39;95205.50;;;6.82;73.54
10732;BME280;5417;42.686;23.244;2022-12-29T05:48:06;95214.28;;;6.79;73.95
10732;BME280;5417;42.686;23.244;2022-12-29T05:50:32;95205.13;;;6.72;73.55
10732;BME280;5417;42.686;23.244;2022-12-29T05:53:01;95222.13;;;6.78;73.24
10732;BME280;5417;42.686;23.244;2022-12-29T05:55:28;95217.78;;;6.78;74.07
10732;BME280;5417;42.686;23.244;2022-12-29T05:57:55;95224.28;;;6.85;73.79
10732;BME280;5417;42.686;23.244;2022-12-29T06:00:22;95219.28;;;6.82;73.79
10732;BME280;5417;42.686;23.244;2022-12-29T06:02:49;95230.13;;;7.05;72.46
10732;BME280;5417;42.686;23.244;2022-12-29T06:05:16;95221.69;;;7.01;72.90
10732;BME280;5417;42.686;23.244;2022-12-29T06:07:44;95227.53;;;7.05;72.45
10732;BME280;5417;42.686;23.244;2022-12-29T06:10:13;95225.47;;;6.95;72.50
10732;BME280;5417;42.686;23.244;2022-12-29T06:12:40;95223.03;;;6.92;73.52
10732;BME280;5417;42.686;23.244;2022-12-29T06:15:07;95229.72;;;6.96;73.14
10732;BME280;5417;42.686;23.244;2022-12-29T06:17:34;95229.38;;;7.03;73.38
10732;BME280;5417;42.686;23.244;2022-12-29T06:20:01;95227.78;;;7.16;72.82
10732;BME280;5417;42.686;23.244;2022-12-29T06:22:28;95227.78;;;7.16;71.94
10732;BME280;5417;42.686;23.244;2022-12-29T06:24:55;95227.63;;;7.19;73.14
10732;BME280;5417;42.686;23.244;2022-12-29T06:27:24;95237.34;;;7.31;73.44
10732;BME280;5417;42.686;23.244;2022-12-29T06:29:51;95230.38;;;7.47;71.92
10732;BME280;5417;42.686;23.244;2022-12-29T06:32:18;95233.72;;;7.79;70.61
10732;BME280;5417;42.686;23.244;2022-12-29T06:34:45;95222.19;;;7.85;69.48
10732;BME280;5417;42.686;23.244;2022-12-29T06:37:12;95229.47;;;7.78;68.79
10732;BME280;5417;42.686;23.244;2022-12-29T06:39:40;95235.19;;;7.69;70.05
10732;BME280;5417;42.686;23.244;2022-12-29T06:42:08;95231.38;;;7.45;70.76
10732;BME280;5417;42.686;23.244;2022-12-29T06:44:37;95239.22;;;7.27;71.28
10732;BME280;5417;42.686;23.244;2022-12-29T06:47:04;95230.22;;;7.19;72.09
10732;BME280;5417;42.686;23.244;2022-12-29T06:49:30;95242.66;;;7.44;71.64
10732;BME280;5417;42.686;23.244;2022-12-29T06:51:57;95243.38;;;7.62;71.44
10732;BME280;5417;42.686;23.244;2022-12-29T06:54:26;95237.09;;;7.81;70.92
10732;BME280;5417;42.686;23.244;2022-12-29T06:56:53;95234.97;;;7.88;69.42
10732;BME280;5417;42.686;23.244;2022-12-29T06:59:19;95241.31;;;7.98;69.76
10732;BME280;5417;42.686;23.244;2022-12-29T07:01:48;95235.59;;;8.07;69.41
10732;BME280;5417;42.686;23.244;2022-12-29T07:04:15;95246.88;;;8.06;69.41
10732;BME280;5417;42.686;23.244;2022-12-29T07:06:42;95231.31;;;7.76;69.47
10732;BME280;5417;42.686;23.244;2022-12-29T07:09:09;95250.53;;;7.72;70.72
10732;BME280;5417;42.686;23.244;2022-12-29T07:11:36;95240.34;;;7.69;70.98
10732;BME280;5417;42.686;23.244;2022-12-29T07:14:03;95250.19;;;7.78;71.52
10732;BME280;5417;42.686;23.244;2022-12-29T07:16:31;95246.44;;;7.84;70.82
10732;BME280;5417;42.686;23.244;2022-12-29T07:19:01;95219.53;;;7.71;69.87
10732;BME280;5417;42.686;23.244;2022-12-29T07:21:28;95241.19;;;7.70;70.48
10732;BME280;5417;42.686;23.244;2022-12-29T07:23:55;95235.97;;;7.40;70.79
10732;BME280;5417;42.686;23.244;2022-12-29T07:26:21;95238.25;;;7.30;72.23
10732;BME280;5417;42.686;23.244;2022-12-29T07:28:48;95248.09;;;7.23;72.30
10732;BME280;5417;42.686;23.244;2022-12-29T07:31:18;95247.25;;;7.07;72.21
10732;BME280;5417;42.686;23.244;2022-12-29T07:33:45;95244.25;;;6.99;73.33
10732;BME280;5417;42.686;23.244;2022-12-29T07:36:14;95230.13;;;6.89;73.92
10732;BME280;5417;42.686;23.244;2022-12-29T07:38:42;95244.75;;;7.06;74.48
10732;BME280;5417;42.686;23.244;2022-12-29T07:41:09;95243.16;;;7.19;74.37
10732;BME280;5417;42.686;23.244;2022-12-29T07:43:36;95248.75;;;7.11;72.97
10732;BME280;5417;42.686;23.244;2022-12-29T07:46:03;95238.66;;;6.91;73.88
10732;BME280;5417;42.686;23.244;2022-12-29T07:48:30;95248.25;;;6.89;73.51
10732;BME280;5417;42.686;23.244;2022-12-29T07:50:59;95247.75;;;6.82;74.08
10732;BME280;5417;42.686;23.244;2022-12-29T07:53:27;95248.81;;;6.78;74.52
10732;BME280;5417;42.686;23.244;2022-12-29T07:55:54;95243.19;;;6.70;75.10
10732;BME280;5417;42.686;23.244;2022-12-29T07:58:21;95258.19;;;6.81;74.76
10732;BME280;5417;42.686;23.244;2022-12-29T08:00:53;95257.97;;;6.68;75.00
10732;BME280;5417;42.686;23.244;2022-12-29T08:03:19;95247.34;;;6.57;75.84
10732;BME280;5417;42.686;23.244;2022-12-29T08:05:46;95262.28;;;6.68;75.70
10732;BME280;5417;42.686;23.244;2022-12-29T08:08:13;95243.03;;;6.73;75.01
10732;BME280;5417;42.686;23.244;2022-12-29T08:10:42;95265.19;;;6.61;75.54
10732;BME280;5417;42.686;23.244;2022-12-29T08:13:09;95249.84;;;6.58;76.36
10732;BME280;5417;42.686;23.244;2022-12-29T08:15:37;95265.03;;;6.64;75.97
10732;BME280;5417;42.686;23.244;2022-12-29T08:18:05;95261.53;;;6.65;75.57
10732;BME280;5417;42.686;23.244;2022-12-29T08:20:32;95264.97;;;6.66;76.07
10732;BME280;5417;42.686;23.244;2022-12-29T08:22:59;95248.44;;;6.69;76.00
10732;BME280;5417;42.686;23.244;2022-12-29T08:25:26;95254.34;;;6.88;75.07
10732;BME280;5417;42.686;23.244;2022-12-29T08:27:54;95246.91;;;6.97;74.74
10732;BME280;5417;42.686;23.244;2022-12-29T08:30:22;95258.44;;;7.23;74.65
10732;BME280;5417;42.686;23.244;2022-12-29T08:32:49;95255.44;;;7.15;72.87
10732;BME280;5417;42.686;23.244;2022-12-29T08:35:16;95261.78;;;7.25;73.11
10732;BME280;5417;42.686;23.244;2022-12-29T08:37:43;95260.94;;;7.25;73.39
10732;BME280;5417;42.686;23.244;2022-12-29T08:40:10;95248.16;;;7.22;73.64
10732;BME280;5417;42.686;23.244;2022-12-29T08:42:39;95251.59;;;7.38;72.69
10732;BME280;5417;42.686;23.244;2022-12-29T08:45:08;95242.84;;;7.41;73.56
10732;BME280;5417;42.686;23.244;2022-12-29T08:47:36;95257.50;;;7.56;72.76
10732;BME280;5417;42.686;23.244;2022-12-29T08:50:03;95261.19;;;7.52;73.14
10732;BME280;5417;42.686;23.244;2022-12-29T08:52:30;95262.09;;;7.67;72.61
10732;BME280;5417;42.686;23.244;2022-12-29T08:54:57;95255.22;;;7.81;71.70
10732;BME280;5417;42.686;23.244;2022-12-29T08:57:24;95240.19;;;7.72;70.95
10732;BME280;5417;42.686;23.244;2022-12-29T08:59:52;95256.00;;;7.68;72.28
10732;BME280;5417;42.686;23.244;2022-12-29T09:02:21;95241.94;;;7.72;71.56
10732;BME280;5417;42.686;23.244;2022-12-29T09:04:48;95246.72;;;7.64;71.62
10732;BME280;5417;42.686;23.244;2022-12-29T09:07:14;95238.69;;;7.68;72.09
10732;BME280;5417;42.686;23.244;2022-12-29T09:09:41;95226.19;;;7.90;71.38
10732;BME280;5417;42.686;23.244;2022-12-29T09:12:08;95238.53;;;8.01;69.68
10732;BME280;5417;42.686;23.244;2022-12-29T09:14:35;95229.31;;;8.26;69.35
10732;BME280;5417;42.686;23.244;2022-12-29T09:17:02;95224.75;;;8.45;69.01
10732;BME280;5417;42.686;23.244;2022-12-29T09:19:48;95229.31;;;8.26;69.59
10732;BME280;5417;42.686;23.244;2022-12-29T09:22:15;95220.59;;;8.42;69.79
10732;BME280;5417;42.686;23.244;2022-12-29T09:24:41;95226.06;;;8.52;69.70
10732;BME280;5417;42.686;23.244;2022-12-29T09:27:08;95228.38;;;8.42;68.86
10732;BME280;5417;42.686;23.244;2022-12-29T09:29:35;95220.59;;;8.57;69.49
10732;BME280;5417;42.686;23.244;2022-12-29T09:32:03;95210.47;;;8.52;68.79
10732;BME280;5417;42.686;23.244;2022-12-29T09:34:30;95216.88;;;8.61;68.97
10732;BME280;5417;42.686;23.244;2022-12-29T09:36:58;95208.81;;;8.51;69.62
10732;BME280;5417;42.686;23.244;2022-12-29T09:39:25;95208.72;;;8.52;69.06
10732;BME280;5417;42.686;23.244;2022-12-29T09:42:00;95208.81;;;8.37;69.58
10732;BME280;5417;42.686;23.244;2022-12-29T09:44:39;95186.78;;;8.44;69.67
10732;BME280;5417;42.686;23.244;2022-12-29T09:47:12;95202.69;;;8.66;68.38
10732;BME280;5417;42.686;23.244;2022-12-29T09:49:43;95198.59;;;8.76;69.45
10732;BME280;5417;42.686;23.244;2022-12-29T09:52:14;95190.44;;;8.68;69.49
10732;BME280;5417;42.686;23.244;2022-12-29T09:54:49;95188.22;;;8.91;68.34
10732;BME280;5417;42.686;23.244;2022-12-29T09:57:22;95197.09;;;9.01;67.17
10732;BME280;5417;42.686;23.244;2022-12-29T09:59:54;95181.59;;;9.13;67.73
10732;BME280;5417;42.686;23.244;2022-12-29T10:02:33;95178.91;;;9.42;67.21
10732;BME280;5417;42.686;23.244;2022-12-29T10:05:03;95181.97;;;9.61;65.46
10732;BME280;5417;42.686;23.244;2022-12-29T10:07:38;95180.94;;;9.64;64.92
10732;BME280;5417;42.686;23.244;2022-12-29T10:10:17;95177.22;;;9.68;65.16
10732;BME280;5417;42.686;23.244;2022-12-29T10:12:55;95173.91;;;9.78;66.03
10732;BME280;5417;42.686;23.244;2022-12-29T10:15:38;95173.28;;;9.88;65.00
10732;BME280;5417;42.686;23.244;2022-12-29T10:21:02;95174.84;;;9.77;64.47
10732;BME280;5417;42.686;23.244;2022-12-29T10:23:36;95170.28;;;9.41;65.96
10732;BME280;5417;42.686;23.244;2022-12-29T10:26:11;95146.16;;;9.12;66.27
10732;BME280;5417;42.686;23.244;2022-12-29T10:28:42;95151.50;;;9.24;67.31
10732;BME280;5417;42.686;23.244;2022-12-29T10:31:16;95153.22;;;9.37;67.37
10732;BME280;5417;42.686;23.244;2022-12-29T10:33:46;95159.16;;;9.39;66.12
10732;BME280;5417;42.686;23.244;2022-12-29T10:36:17;95141.06;;;9.38;66.35
10732;BME280;5417;42.686;23.244;2022-12-29T10:38:54;95151.84;;;9.71;66.41
10732;BME280;5417;42.686;23.244;2022-12-29T10:41:28;95140.25;;;9.90;65.61
10732;BME280;5417;42.686;23.244;2022-12-29T10:44:00;95149.09;;;10.12;65.12
10732;BME280;5417;42.686;23.244;2022-12-29T10:46:30;95140.06;;;10.31;63.43
10732;BME280;5417;42.686;23.244;2022-12-29T10:48:59;95134.34;;;10.51;63.12
10732;BME280;5417;42.686;23.244;2022-12-29T10:51:30;95135.63;;;10.82;62.03
10732;BME280;5417;42.686;23.244;2022-12-29T10:54:04;95128.75;;;10.94;60.92
10732;BME280;5417;42.686;23.244;2022-12-29T10:56:38;95136.00;;;11.01;61.70
10732;BME280;5417;42.686;23.244;2022-12-29T10:59:14;95115.91;;;10.91;60.71
10732;BME280;5417;42.686;23.244;2022-12-29T11:01:52;95116.66;;;10.93;61.42
10732;BME280;5417;42.686;23.244;2022-12-29T11:04:35;95117.66;;;11.03;61.75
10732;BME280;5417;42.686;23.244;2022-12-29T11:07:07;95112.28;;;11.17;60.40
10732;BME280;5417;42.686;23.244;2022-12-29T11:09:37;95110.97;;;11.12;60.45
10732;BME280;5417;42.686;23.244;2022-12-29T11:12:19;95111.72;;;11.25;60.06
10732;BME280;5417;42.686;23.244;2022-12-29T11:14:47;95105.28;;;11.42;59.93
10732;BME280;5417;42.686;23.244;2022-12-29T11:17:15;95090.44;;;11.31;60.11
10732;BME280;5417;42.686;23.244;2022-12-29T11:19:43;95100.25;;;11.27;59.84
10732;BME280;5417;42.686;23.244;2022-12-29T11:22:21;95096.84;;;11.38;61.37
10732;BME280;5417;42.686;23.244;2022-12-29T11:24:51;95080.28;;;11.39;59.82
10732;BME280;5417;42.686;23.244;2022-12-29T11:27:20;95094.09;;;11.28;60.40
10732;BME280;5417;42.686;23.244;2022-12-29T11:29:49;95101.38;;;11.12;60.71
10732;BME280;5417;42.686;23.244;2022-12-29T11:32:19;95099.00;;;11.09;60.92
10732;BME280;5417;42.686;23.244;2022-12-29T11:34:47;95094.50;;;11.11;60.82
10732;BME280;5417;42.686;23.244;2022-12-29T11:37:17;95093.56;;;11.12;60.94
10732;BME280;5417;42.686;23.244;2022-12-29T11:39:52;95095.72;;;11.18;60.99
10732;BME280;5417;42.686;23.244;2022-12-29T11:42:23;95095.22;;;11.13;61.10
10732;BME280;5417;42.686;23.244;2022-12-29T11:45:03;95090.91;;;11.01;61.62
10732;BME280;5417;42.686;23.244;2022-12-29T11:47:32;95094.19;;;10.79;62.05
10732;BME280;5417;42.686;23.244;2022-12-29T11:50:02;95095.38;;;10.62;63.04
10732;BME280;5417;42.686;23.244;2022-12-29T11:52:33;95077.09;;;10.51;62.99
10732;BME280;5417;42.686;23.244;2022-12-29T11:55:05;95090.31;;;10.48;63.43
10732;BME280;5417;42.686;23.244;2022-12-29T11:57:34;95084.06;;;10.38;63.75
10732;BME280;5417;42.686;23.244;2022-12-29T12:00:06;95092.50;;;10.29;63.67
10732;BME280;5417;42.686;23.244;2022-12-29T12:02:45;95087.31;;;10.29;64.35
10732;BME280;5417;42.686;23.244;2022-12-29T12:05:24;95089.50;;;10.22;65.29
10732;BME280;5417;42.686;23.244;2022-12-29T12:07:58;95087.31;;;10.03;65.41
10732;BME280;5417;42.686;23.244;2022-12-29T12:10:31;95056.28;;;9.75;65.55
10732;BME280;5417;42.686;23.244;2022-12-29T12:13:05;95087.84;;;9.96;65.35
10732;BME280;5417;42.686;23.244;2022-12-29T12:15:36;95083.47;;;9.96;64.76
10732;BME280;5417;42.686;23.244;2022-12-29T12:18:10;95067.66;;;9.99;64.92
10732;BME280;5417;42.686;23.244;2022-12-29T12:20:47;95076.16;;;10.14;64.72
10732;BME280;5417;42.686;23.244;2022-12-29T12:23:22;95064.00;;;10.27;64.53
10732;BME280;5417;42.686;23.244;2022-12-29T12:25:59;95070.13;;;10.39;64.19
10732;BME280;5417;42.686;23.244;2022-12-29T12:28:36;95063.97;;;10.53;63.64
10732;BME280;5417;42.686;23.244;2022-12-29T12:31:06;95066.09;;;10.71;63.27
10732;BME280;5417;42.686;23.244;2022-12-29T12:33:42;95058.44;;;10.81;63.11
10732;BME280;5417;42.686;23.244;2022-12-29T12:36:21;95055.84;;;10.81;63.14
10732;BME280;5417;42.686;23.244;2022-12-29T12:38:54;95058.50;;;10.92;63.08
10732;BME280;5417;42.686;23.244;2022-12-29T12:41:33;95063.28;;;10.98;62.80
10732;BME280;5417;42.686;23.244;2022-12-29T12:44:09;95056.44;;;10.97;62.88
10732;BME280;5417;42.686;23.244;2022-12-29T12:47:05;95055.88;;;11.05;62.65
10732;BME280;5417;42.686;23.244;2022-12-29T12:49:45;95053.91;;;11.20;61.74
10732;BME280;5417;42.686;23.244;2022-12-29T12:52:23;95050.59;;;11.18;61.13
10732;BME280;5417;42.686;23.244;2022-12-29T12:55:06;95053.78;;;11.21;61.06
10732;BME280;5417;42.686;23.244;2022-12-29T12:57:49;95051.34;;;11.31;61.18
10732;BME280;5417;42.686;23.244;2022-12-29T13:00:20;95054.38;;;11.49;60.89
10732;BME280;5417;42.686;23.244;2022-12-29T13:02:59;95055.56;;;11.45;61.26
10732;BME280;5417;42.686;23.244;2022-12-29T13:05:41;95045.63;;;11.26;60.92
10732;BME280;5417;42.686;23.244;2022-12-29T13:08:32;95043.19;;;11.00;61.63
10732;BME280;5417;42.686;23.244;2022-12-29T13:11:12;95043.44;;;11.09;61.92
10732;BME280;5417;42.686;23.244;2022-12-29T13:14:15;95047.59;;;11.11;62.35
10732;BME280;5417;42.686;23.244;2022-12-29T13:16:51;95040.00;;;11.08;61.78
10732;BME280;5417;42.686;23.244;2022-12-29T13:19:25;95037.28;;;11.10;61.81
10732;BME280;5417;42.686;23.244;2022-12-29T13:22:01;95051.06;;;11.23;61.15
10732;BME280;5417;42.686;23.244;2022-12-29T13:24:38;95056.69;;;11.41;61.20
10732;BME280;5417;42.686;23.244;2022-12-29T13:27:15;95056.91;;;11.61;60.73
10732;BME280;5417;42.686;23.244;2022-12-29T13:29:49;95055.50;;;11.68;60.41
10732;BME280;5417;42.686;23.244;2022-12-29T13:32:26;95055.50;;;11.68;60.42
10732;BME280;5417;42.686;23.244;2022-12-29T13:35:08;95063.19;;;11.70;60.31
10732;BME280;5417;42.686;23.244;2022-12-29T13:37:47;95053.69;;;11.58;60.27
10732;BME280;5417;42.686;23.244;2022-12-29T13:40:16;95056.88;;;11.50;61.09